Time;durP1;ratioP1;P1;durP2;ratioP2;P2;SDS_P1;SDS_P2;PMS_P1;PMS_P2;Temp;Humidity;BMP_temperature;BMP_pressure;BME280_temperature;BME280_humidity;BME280_pressure;Samples;Min_cycle;Max_cycle;Signal;HPM_P1;HPM_P2
2023/05/17 00:01:44;;;;;;;;;;;11.80;65.50;;;7.01;100.00;95736.38;4973136;28;19914;-52
2023/05/17 00:04:09;;;;;;;;;;;11.80;66.30;;;7.05;100.00;95736.69;4972031;28;19916;-55
2023/05/17 00:06:35;;;;;;;;;;;11.80;65.50;;;7.04;100.00;95737.75;4973090;28;19965;-51
2023/05/17 00:09:02;;;;;;;;;;;11.80;65.50;;;6.97;100.00;95732.59;4973344;28;19918;-51
2023/05/17 00:11:27;;;;;;;;;;;11.70;65.50;;;6.97;100.00;95742.41;4972154;28;19956;-54
2023/05/17 00:13:53;;;;;;;;;;;11.70;65.40;;;6.99;100.00;95737.66;4973297;28;19957;-51
2023/05/17 00:16:19;;;;;;;;;;;11.70;65.50;;;6.99;100.00;95738.47;4972239;28;19920;-49
2023/05/17 00:18:45;;;;;;;;;;;11.70;65.40;;;6.99;100.00;95735.00;4973302;28;19910;-51
2023/05/17 00:21:10;;;;;;;;;;;11.70;65.50;;;6.98;100.00;95739.50;4973202;28;19910;-49
2023/05/17 00:23:36;;;;;;;;;;;11.70;65.40;;;6.97;100.00;95737.09;4972328;28;19916;-54
2023/05/17 00:26:02;;;;;;;;;;;11.70;65.50;;;6.93;100.00;95734.13;4973328;28;19917;-51
2023/05/17 00:28:27;;;;;;;;;;;11.70;65.40;;;6.97;100.00;95740.56;4972421;28;19924;-52
2023/05/17 00:30:53;;;;;;;;;;;11.70;65.40;;;6.92;98.78;95732.50;4973011;28;19996;-52
2023/05/17 00:33:19;;;;;;;;;;;11.70;65.50;;;6.92;99.15;95740.44;4973323;28;19909;-51
2023/05/17 00:35:44;;;;;;;;;;;11.70;65.50;;;6.89;97.81;95746.22;4971602;28;19918;-51
2023/05/17 00:38:10;;;;;;;;;;;11.70;65.40;;;6.93;98.50;95744.72;4973262;28;19917;-54
2023/05/17 00:40:36;;;;;;;;;;;11.70;65.40;;;6.91;98.72;95738.84;4972122;28;20389;-49
2023/05/17 00:43:01;;;;;;;;;;;11.70;65.40;;;6.94;98.78;95735.72;4973110;28;20361;-50
2023/05/17 00:45:27;;;;;;;;;;;11.60;65.30;;;6.92;97.10;95753.69;4973058;28;20004;-49
2023/05/17 00:47:53;;;;;;;;;;;11.60;65.30;;;6.92;96.84;95733.31;4967694;28;19997;-50
2023/05/17 00:50:19;;;;;;;;;;;11.60;65.30;;;6.94;98.29;95741.81;4972798;28;19910;-52
2023/05/17 00:52:46;;;;;;;;;;;11.60;65.30;;;6.90;97.48;95743.34;4970924;28;19914;-50
2023/05/17 00:55:11;;;;;;;;;;;11.60;65.30;;;6.89;95.71;95741.75;4966551;28;19959;-51
2023/05/17 00:57:38;;;;;;;;;;;11.60;65.20;;;6.89;94.75;95740.94;4972970;28;19914;-49
2023/05/17 01:00:04;;;;;;;;;;;11.60;65.30;;;6.88;93.96;95744.63;4971795;28;19933;-49
2023/05/17 01:02:30;;;;;;;;;;;11.50;65.20;;;6.88;93.08;95749.91;4972660;28;19914;-49
2023/05/17 01:04:57;;;;;;;;;;;11.60;65.20;;;6.87;94.50;95737.72;4972883;28;19941;-50
2023/05/17 01:07:23;;;;;;;;;;;11.50;65.10;;;6.86;95.56;95747.53;4976729;28;19909;-52
2023/05/17 01:09:49;;;;;;;;;;;11.50;65.10;;;6.86;93.44;95746.69;4976037;28;20404;-49
2023/05/17 01:13:00;;;;;;;;;;;11.50;65.00;;;6.85;91.21;95743.25;4975336;28;19925;-49
2023/05/17 01:15:33;;;;;;;;;;;11.50;65.00;;;6.86;89.74;95738.75;4975940;28;19936;-50
2023/05/17 01:18:43;;;;;;;;;;;11.50;65.00;;;6.84;87.22;95743.50;4975289;28;20307;-49
2023/05/17 01:21:47;;;;;;;;;;;11.50;64.90;;;6.86;87.23;95752.00;4920231;29;19911;-49
2023/05/17 01:24:41;;;;;;;;;;;11.50;64.90;;;6.86;82.86;95744.03;4928542;29;20300;-50
2023/05/17 01:27:09;;;;;;;;;;;11.50;64.80;;;6.88;81.12;95745.41;4977869;28;19916;-53
2023/05/17 01:29:39;;;;;;;;;;;11.50;64.70;;;6.94;81.72;95744.47;4973951;28;19910;-49
2023/05/17 01:32:07;;;;;;;;;;;11.50;64.60;;;6.99;82.00;95750.91;4991006;28;19920;-53
2023/05/17 01:34:34;;;;;;;;;;;11.50;64.40;;;7.00;81.58;95749.88;4975083;28;19922;-50
2023/05/17 01:37:00;;;;;;;;;;;11.50;64.30;;;7.02;81.14;95755.72;4976153;28;19920;-50
2023/05/17 01:39:26;;;;;;;;;;;11.50;64.20;;;7.02;81.58;95747.78;4976132;28;19910;-49
2023/05/17 01:42:21;;;;;;;;;;;11.50;64.10;;;7.03;82.12;95755.50;4975174;28;19925;-51
2023/05/17 01:45:01;;;;;;;;;;;11.50;63.90;;;7.02;82.32;95753.91;4969095;28;19910;-53
2023/05/17 01:48:14;;;;;;;;;;;11.60;63.90;;;7.03;81.63;95754.69;4971870;28;19916;-52
2023/05/17 01:50:42;;;;;;;;;;;11.50;63.70;;;7.00;80.67;95742.72;4958838;28;20308;-48
2023/05/17 01:53:24;;;;;;;;;;;11.60;63.70;;;6.99;81.14;95750.91;4973258;28;19909;-54
2023/05/17 01:56:06;;;;;;;;;;;11.60;63.60;;;6.99;80.16;95740.31;4975656;28;19920;-49
2023/05/17 01:58:47;;;;;;;;;;;11.60;63.50;;;6.98;80.35;95736.84;4988096;28;19993;-51
2023/05/17 02:01:17;;;;;;;;;;;11.60;63.30;;;7.01;80.37;95739.03;4968419;28;19917;-52
2023/05/17 02:03:43;;;;;;;;;;;11.60;63.20;;;7.00;80.41;95744.56;4990127;28;19914;-53
2023/05/17 02:06:08;;;;;;;;;;;11.60;63.10;;;7.00;79.67;95752.53;4989226;28;19916;-51
2023/05/17 02:08:34;;;;;;;;;;;11.50;62.90;;;7.02;79.74;95759.19;4975475;28;19910;-49
2023/05/17 02:11:00;;;;;;;;;;;11.50;62.90;;;6.99;80.41;95754.38;4974362;28;19948;-49
2023/05/17 02:13:26;;;;;;;;;;;11.60;62.90;;;6.99;77.49;95750.91;4975328;28;19910;-50
2023/05/17 02:15:51;;;;;;;;;;;11.60;62.80;;;7.01;77.70;95752.28;4974604;28;20435;-49
2023/05/17 02:18:20;;;;;;;;;;;11.60;62.70;;;7.02;78.13;95753.91;4973712;28;19910;-49
2023/05/17 02:20:46;;;;;;;;;;;11.60;62.60;;;7.03;78.43;95752.06;4975624;28;19910;-48
2023/05/17 02:23:12;;;;;;;;;;;11.60;62.50;;;6.99;77.96;95750.91;4974475;28;19909;-49
2023/05/17 02:25:37;;;;;;;;;;;11.60;62.40;;;6.99;77.79;95742.94;4975425;28;19913;-50
2023/05/17 02:28:03;;;;;;;;;;;11.60;62.30;;;6.98;77.11;95749.31;4975624;28;20016;-51
2023/05/17 02:30:29;;;;;;;;;;;11.60;62.20;;;6.99;77.12;95742.94;4974075;28;19910;-52
2023/05/17 02:32:55;;;;;;;;;;;11.60;62.10;;;6.97;76.41;95748.50;4975086;28;19917;-49
2023/05/17 02:35:21;;;;;;;;;;;11.60;62.00;;;6.96;76.91;95749.56;4973870;28;19944;-49
2023/05/17 02:37:47;;;;;;;;;;;11.60;61.90;;;6.94;75.47;95738.38;4973659;28;19917;-48
2023/05/17 02:40:13;;;;;;;;;;;11.60;61.80;;;6.98;76.14;95741.34;4974163;28;20376;-51
2023/05/17 02:42:38;;;;;;;;;;;11.60;61.70;;;6.94;75.38;95741.03;4970585;28;19910;-49
2023/05/17 02:45:05;;;;;;;;;;;11.60;61.60;;;6.94;74.31;95741.03;4974843;28;19910;-48
2023/05/17 02:47:31;;;;;;;;;;;11.50;61.50;;;6.96;75.42;95741.59;4973835;28;19914;-50
2023/05/17 02:49:56;;;;;;;;;;;11.60;61.40;;;6.94;75.43;95744.47;4974885;28;19917;-49
2023/05/17 02:52:22;;;;;;;;;;;11.60;61.30;;;6.94;75.71;95741.81;4973424;28;20000;-50
2023/05/17 02:54:48;;;;;;;;;;;11.60;61.20;;;6.97;75.90;95739.75;4974674;28;19955;-48
2023/05/17 02:57:14;;;;;;;;;;;11.50;61.00;;;6.94;76.02;95741.81;4974569;28;19914;-49
2023/05/17 02:59:39;;;;;;;;;;;11.50;61.00;;;6.92;75.27;95746.53;4973478;28;19909;-49
2023/05/17 03:02:05;;;;;;;;;;;11.50;60.90;;;6.88;75.99;95752.56;4974405;28;19910;-52
2023/05/17 03:04:32;;;;;;;;;;;11.50;60.90;;;6.85;75.46;95739.81;4973475;28;19917;-51
2023/05/17 03:06:58;;;;;;;;;;;11.50;60.80;;;6.86;75.34;95752.00;4974288;28;19909;-49
2023/05/17 03:09:24;;;;;;;;;;;11.50;60.70;;;6.85;75.68;95745.09;4974475;28;19947;-48
2023/05/17 03:11:49;;;;;;;;;;;11.50;60.70;;;6.84;75.29;95757.53;4972965;28;19909;-48
2023/05/17 03:14:15;;;;;;;;;;;11.50;60.60;;;6.83;75.03;95755.94;4974305;28;20000;-50
2023/05/17 03:16:41;;;;;;;;;;;11.50;60.50;;;6.81;75.36;95754.56;4973129;28;20373;-49
2023/05/17 03:19:06;;;;;;;;;;;11.50;61.30;;;6.85;74.97;95763.63;4974294;28;19920;-50
2023/05/17 03:21:32;;;;;;;;;;;11.50;60.40;;;6.82;74.76;95761.47;4974197;28;19925;-48
2023/05/17 03:23:58;;;;;;;;;;;11.50;60.40;;;6.81;75.28;95763.31;4973592;28;19960;-51
2023/05/17 03:26:24;;;;;;;;;;;11.50;60.40;;;6.86;74.93;95771.34;4974028;28;20288;-50
2023/05/17 03:28:50;;;;;;;;;;;11.50;60.40;;;6.81;75.34;95768.59;4987812;28;19910;-53
2023/05/17 03:31:16;;;;;;;;;;;11.50;60.30;;;6.84;75.48;95777.91;4974008;28;20343;-53
2023/05/17 03:33:42;;;;;;;;;;;11.50;60.30;;;6.79;74.82;95781.25;4974099;28;19910;-48
2023/05/17 03:36:08;;;;;;;;;;;11.50;60.20;;;6.80;75.97;95784.72;4972487;28;20388;-54
2023/05/17 03:38:34;;;;;;;;;;;11.50;60.20;;;6.81;75.26;95788.97;4974106;28;19921;-51
2023/05/17 03:40:59;;;;;;;;;;;11.50;60.10;;;6.84;75.79;95783.22;4973133;28;19937;-49
2023/05/17 03:43:25;;;;;;;;;;;11.40;60.00;;;6.77;75.25;95788.66;4972647;28;19948;-50
2023/05/17 03:45:51;;;;;;;;;;;11.40;60.80;;;6.82;76.16;95791.38;4973615;28;19909;-55
2023/05/17 03:48:16;;;;;;;;;;;11.40;60.00;;;6.79;76.20;95793.69;4972902;28;19913;-51
2023/05/17 03:50:42;;;;;;;;;;;11.40;60.00;;;6.78;75.31;95784.97;4973885;28;19941;-51
2023/05/17 03:53:09;;;;;;;;;;;11.40;59.90;;;6.81;76.18;95791.63;4972629;28;19910;-53
2023/05/17 03:55:35;;;;;;;;;;;11.40;59.90;;;6.78;75.80;95790.25;4973367;28;20029;-49
2023/05/17 03:58:02;;;;;;;;;;;11.40;59.90;;;6.79;76.06;95788.41;4973064;28;27757;-50
2023/05/17 04:00:28;;;;;;;;;;;11.40;59.90;;;6.79;77.24;95796.34;4972173;28;19949;-48
2023/05/17 04:02:54;;;;;;;;;;;11.40;59.90;;;6.78;76.92;95794.75;4973384;28;19916;-52
2023/05/17 04:05:20;;;;;;;;;;;11.40;59.80;;;6.79;76.89;95799.78;4972291;28;19992;-50
2023/05/17 04:07:46;;;;;;;;;;;11.40;59.80;;;6.79;77.66;95806.94;4973868;28;19910;-50
2023/05/17 04:10:11;;;;;;;;;;;11.40;60.50;;;6.79;77.65;95802.44;4972241;28;20273;-55
2023/05/17 04:12:37;;;;;;;;;;;11.40;59.70;;;6.78;78.05;95792.91;4973457;28;19920;-51
2023/05/17 04:15:05;;;;;;;;;;;11.40;59.80;;;6.76;77.95;95802.91;4973122;28;19910;-49
2023/05/17 04:17:31;;;;;;;;;;;11.40;59.70;;;6.78;78.11;95798.19;4972183;28;19920;-51
2023/05/17 04:19:57;;;;;;;;;;;11.40;59.70;;;6.75;77.65;95797.88;4973220;28;19914;-49
2023/05/17 04:22:23;;;;;;;;;;;11.50;59.80;;;6.75;78.08;95800.50;4970886;28;20423;-48
2023/05/17 04:24:48;;;;;;;;;;;11.40;59.70;;;6.76;78.58;95802.09;4969727;28;19909;-50
2023/05/17 04:27:14;;;;;;;;;;;11.50;59.70;;;6.73;77.70;95803.38;4973222;28;20319;-49
2023/05/17 04:29:40;;;;;;;;;;;11.40;59.60;;;6.73;77.96;95801.53;4971977;28;19968;-48
2023/05/17 04:32:07;;;;;;;;;;;11.50;59.60;;;6.76;78.25;95807.41;4973211;28;19913;-49
2023/05/17 04:34:33;;;;;;;;;;;11.50;59.60;;;6.72;78.70;95807.88;4969214;28;20020;-50
2023/05/17 04:36:59;;;;;;;;;;;11.50;59.60;;;6.72;78.14;95813.16;4963488;28;20012;-51
2023/05/17 04:39:25;;;;;;;;;;;11.50;59.50;;;6.74;78.02;95810.31;4973377;28;19916;-50
2023/05/17 04:41:51;;;;;;;;;;;11.50;59.40;;;6.75;77.88;95803.97;4975901;28;19917;-52
2023/05/17 04:44:16;;;;;;;;;;;11.60;59.40;;;6.69;78.53;95808.34;4976787;28;19909;-51
2023/05/17 04:46:42;;;;;;;;;;;11.60;59.40;;;6.70;78.98;95815.22;4976345;28;19951;-48
2023/05/17 04:49:09;;;;;;;;;;;11.60;59.30;;;6.73;78.67;95817.41;4976924;28;19910;-52
2023/05/17 04:51:35;;;;;;;;;;;11.60;59.30;;;6.70;77.33;95815.22;4977044;28;19917;-51
2023/05/17 04:54:05;;;;;;;;;;;11.70;59.20;;;6.70;78.28;95817.09;4975353;28;19922;-51
2023/05/17 04:56:33;;;;;;;;;;;11.70;59.20;;;6.75;77.98;95819.84;4976936;28;19968;-50
2023/05/17 04:58:58;;;;;;;;;;;11.70;59.20;;;6.76;77.49;95820.63;4975730;28;19985;-50
2023/05/17 05:01:24;;;;;;;;;;;11.70;59.10;;;6.81;77.23;95818.91;4976654;28;19921;-48
2023/05/17 05:03:50;;;;;;;;;;;11.80;59.10;;;6.80;76.93;95824.41;4976585;28;20394;-48
2023/05/17 05:06:16;;;;;;;;;;;11.90;59.00;;;6.82;76.66;95817.84;4975873;28;19910;-49
2023/05/17 05:08:41;;;;;;;;;;;11.90;58.90;;;6.88;77.04;95827.50;4976269;28;20080;-49
2023/05/17 05:11:07;;;;;;;;;;;12.00;58.90;;;6.96;77.36;95831.66;4975461;28;19910;-49
2023/05/17 05:13:33;;;;;;;;;;;12.10;58.80;;;7.00;76.16;95830.13;4976520;28;19913;-50
2023/05/17 05:16:01;;;;;;;;;;;12.10;58.80;;;7.05;75.57;95838.19;4976168;28;20044;-50
2023/05/17 05:18:27;;;;;;;;;;;12.20;58.70;;;7.11;75.11;95839.91;4975678;28;19909;-51
2023/05/17 05:20:53;;;;;;;;;;;12.30;58.60;;;7.08;75.29;95835.06;4971901;28;19913;-48
2023/05/17 05:23:18;;;;;;;;;;;12.30;58.40;;;7.19;75.51;95842.16;4973285;28;19956;-49
2023/05/17 05:25:44;;;;;;;;;;;12.50;58.40;;;7.19;76.14;95844.00;4976384;28;19910;-49
2023/05/17 05:28:10;;;;;;;;;;;12.50;58.20;;;7.25;75.42;95850.22;4976343;28;19917;-52
2023/05/17 05:30:36;;;;;;;;;;;12.50;58.20;;;7.27;75.44;95842.81;4975487;28;20296;-50
2023/05/17 05:33:02;;;;;;;;;;;12.60;58.10;;;7.29;75.12;95852.13;4975825;28;19909;-51
2023/05/17 05:35:28;;;;;;;;;;;12.60;58.00;;;7.23;75.15;95853.06;4975504;28;19924;-48
2023/05/17 05:37:56;;;;;;;;;;;12.70;57.90;;;7.29;74.70;95846.84;4975827;28;20266;-49
2023/05/17 05:40:22;;;;;;;;;;;12.70;57.80;;;7.35;74.78;95845.88;4975028;28;19932;-52
2023/05/17 05:42:48;;;;;;;;;;;12.80;57.80;;;7.40;74.89;95848.63;4976004;28;19910;-49
2023/05/17 05:45:14;;;;;;;;;;;12.90;57.70;;;7.44;74.55;95848.16;4975718;28;20279;-49
2023/05/17 05:47:40;;;;;;;;;;;13.00;57.60;;;7.54;74.43;95865.03;4974811;28;20395;-49
2023/05/17 05:50:08;;;;;;;;;;;13.10;57.50;;;7.53;71.99;95860.00;4975850;28;19945;-48
2023/05/17 05:52:33;;;;;;;;;;;13.20;57.30;;;7.61;73.54;95851.63;4973268;28;20392;-53
2023/05/17 05:54:59;;;;;;;;;;;13.30;57.20;;;7.72;71.66;95855.28;4975873;28;20419;-49
2023/05/17 05:57:25;;;;;;;;;;;13.30;57.00;;;7.79;72.15;95854.06;4975474;28;19913;-49
2023/05/17 05:59:51;;;;;;;;;;;13.40;56.90;;;7.81;72.64;95865.25;4974769;28;19945;-49
2023/05/17 06:02:17;;;;;;;;;;;13.50;56.80;;;7.81;72.19;95856.50;4975454;28;19917;-52
2023/05/17 06:04:43;;;;;;;;;;;13.60;56.70;;;7.81;71.49;95862.59;4974333;28;20313;-54
2023/05/17 06:07:09;;;;;;;;;;;13.70;57.10;;;7.91;71.84;95867.25;4975282;28;19987;-49
2023/05/17 06:09:35;;;;;;;;;;;13.70;56.40;;;7.91;71.70;95867.25;4975797;28;19948;-49
2023/05/17 06:12:00;;;;;;;;;;;13.70;56.20;;;7.94;70.76;95879.25;4974483;28;19956;-49
2023/05/17 06:14:26;;;;;;;;;;;13.70;56.10;;;7.87;70.69;95888.16;4975469;28;19961;-49
2023/05/17 06:16:52;;;;;;;;;;;13.70;56.00;;;7.80;69.98;95879.56;4973999;28;19914;-48
2023/05/17 06:19:18;;;;;;;;;;;13.70;55.80;;;7.73;69.98;95884.19;4975215;28;19910;-49
2023/05/17 06:21:44;;;;;;;;;;;13.60;55.80;;;7.75;71.55;95883.97;4975235;28;20365;-49
2023/05/17 06:24:10;;;;;;;;;;;13.50;55.70;;;7.62;70.87;95879.78;4974401;28;19916;-50
2023/05/17 06:26:36;;;;;;;;;;;13.50;55.80;;;7.65;71.04;95890.69;4975247;28;19964;-51
2023/05/17 06:29:02;;;;;;;;;;;13.40;55.70;;;7.61;71.77;95886.91;4973953;28;20008;-48
2023/05/17 06:31:28;;;;;;;;;;;13.40;55.70;;;7.61;71.04;95897.50;4975166;28;20072;-48
2023/05/17 06:33:54;;;;;;;;;;;13.40;55.70;;;7.67;70.84;95894.94;4975483;28;20008;-53
2023/05/17 06:36:20;;;;;;;;;;;13.40;55.70;;;7.64;70.98;95883.78;4971914;28;20004;-49
2023/05/17 06:38:45;;;;;;;;;;;13.40;55.60;;;7.68;71.25;95897.38;4975120;28;19932;-48
2023/05/17 06:41:11;;;;;;;;;;;13.50;55.60;;;7.69;71.32;95895.53;4973836;28;19909;-49
2023/05/17 06:43:37;;;;;;;;;;;13.50;55.50;;;7.77;70.47;95898.59;4975052;28;19909;-50
2023/05/17 06:46:02;;;;;;;;;;;13.60;55.40;;;7.81;70.66;95888.31;4962819;28;19913;-49
2023/05/17 06:48:28;;;;;;;;;;;13.70;55.40;;;7.88;71.40;95899.56;4973918;28;19910;-52
2023/05/17 06:50:54;;;;;;;;;;;13.80;55.20;;;7.97;70.35;95894.69;4974815;28;19953;-51
2023/05/17 06:53:20;;;;;;;;;;;13.80;55.10;;;8.08;70.45;95899.94;4973954;28;19916;-49
2023/05/17 06:55:46;;;;;;;;;;;14.00;55.00;;;8.25;69.50;95904.44;4974308;28;19913;-49
2023/05/17 06:58:11;;;;;;;;;;;14.10;55.00;;;8.25;69.05;95912.38;4973744;28;19914;-51
2023/05/17 07:00:37;;;;;;;;;;;14.20;54.70;;;8.35;69.34;95915.19;4973381;28;19914;-50
2023/05/17 07:03:03;;;;;;;;;;;14.40;55.20;;;8.36;69.55;95914.13;4974253;28;19967;-49
2023/05/17 07:05:29;;;;;;;;;;;14.50;54.50;;;8.48;69.93;95914.88;4973111;28;19964;-49
2023/05/17 07:07:57;;;;;;;;;;;14.60;54.40;;;8.56;68.95;95921.66;4974540;28;19971;-49
2023/05/17 07:10:23;;;;;;;;;;;14.80;54.40;;;8.75;68.02;95920.34;4973459;28;20328;-50
2023/05/17 07:12:48;;;;;;;;;;;15.00;54.20;;;8.81;67.57;95918.56;4974246;28;19909;-49
2023/05/17 07:15:14;;;;;;;;;;;15.20;54.00;;;8.75;68.15;95915.03;4968174;28;19921;-50
2023/05/17 07:17:40;;;;;;;;;;;15.30;53.80;;;8.71;66.15;95905.13;4970312;28;20337;-49
2023/05/17 07:20:07;;;;;;;;;;;15.50;53.60;;;8.76;65.66;95907.84;4971520;28;19913;-50
2023/05/17 07:22:32;;;;;;;;;;;15.50;53.10;;;8.89;65.29;95914.66;4971112;28;19914;-51
2023/05/17 07:24:58;;;;;;;;;;;15.70;52.80;;;9.04;65.68;95920.19;4971476;28;20387;-51
2023/05/17 07:27:24;;;;;;;;;;;15.80;52.60;;;8.97;64.31;95909.75;4972964;28;20374;-51
2023/05/17 07:29:50;;;;;;;;;;;16.00;52.30;;;9.03;64.19;95919.38;4972960;28;20332;-49
2023/05/17 07:32:16;;;;;;;;;;;16.10;51.90;;;9.23;65.56;95921.47;4973605;28;19961;-47
2023/05/17 07:34:42;;;;;;;;;;;16.30;51.60;;;9.40;62.92;95920.59;4987866;28;19961;-47
2023/05/17 07:37:08;;;;;;;;;;;16.60;51.40;;;9.53;62.70;95916.75;4973877;28;20357;-48
2023/05/17 07:39:33;;;;;;;;;;;16.80;51.10;;;9.57;62.41;95921.34;4973834;28;19909;-48
2023/05/17 07:41:59;;;;;;;;;;;17.00;50.80;;;9.68;63.73;95917.75;4972720;28;19960;-51
2023/05/17 07:44:25;;;;;;;;;;;17.20;50.70;;;9.82;62.78;95917.34;4973843;28;19910;-49
2023/05/17 07:46:51;;;;;;;;;;;17.20;50.40;;;10.09;63.45;95917.31;4972748;28;19910;-50
2023/05/17 07:49:17;;;;;;;;;;;17.40;50.10;;;10.51;61.88;95917.44;4973464;28;20000;-48
2023/05/17 07:51:42;;;;;;;;;;;17.70;50.10;;;10.51;60.05;95922.75;4973811;28;20427;-52
2023/05/17 07:54:08;;;;;;;;;;;18.10;49.90;;;10.84;59.23;95923.50;4987589;28;19910;-48
2023/05/17 07:56:34;;;;;;;;;;;18.40;49.40;;;11.18;60.29;95923.16;4973732;28;19992;-47
2023/05/17 07:59:00;;;;;;;;;;;18.60;49.40;;;10.38;59.52;95921.34;4972733;28;19913;-48
2023/05/17 08:01:26;;;;;;;;;;;18.80;48.80;;;10.20;59.92;95927.81;4973469;28;19909;-51
2023/05/17 08:03:52;;;;;;;;;;;18.80;48.20;;;10.50;59.02;95931.00;4973710;28;19914;-51
2023/05/17 08:06:18;;;;;;;;;;;18.90;48.20;;;10.79;59.93;95931.47;4984541;28;19917;-48
2023/05/17 08:08:44;;;;;;;;;;;19.00;48.00;;;10.48;60.42;95938.44;4971903;28;19910;-48
2023/05/17 08:11:12;;;;;;;;;;;19.20;47.90;;;11.01;60.28;95936.66;4972669;28;19916;-50
2023/05/17 08:13:38;;;;;;;;;;;19.40;47.60;;;11.19;58.40;95930.91;4973903;28;20345;-47
2023/05/17 08:16:06;;;;;;;;;;;19.40;47.40;;;11.28;58.27;95936.50;4983773;28;19933;-55
2023/05/17 08:18:33;;;;;;;;;;;19.60;47.10;;;11.29;58.82;95938.94;4969182;28;19909;-50
2023/05/17 08:20:59;;;;;;;;;;;19.80;46.80;;;11.18;57.35;95933.81;4969698;28;20384;-50
2023/05/17 08:23:24;;;;;;;;;;;19.80;47.30;;;11.09;57.57;95938.81;4968392;28;19910;-52
2023/05/17 08:25:50;;;;;;;;;;;19.80;46.50;;;11.29;56.26;95927.47;4970398;28;20001;-48
2023/05/17 08:28:17;;;;;;;;;;;19.70;46.40;;;10.92;55.26;95955.00;4969391;28;20361;-56
2023/05/17 08:30:42;;;;;;;;;;;19.70;46.30;;;10.94;59.86;95946.75;4969624;28;19963;-48
2023/05/17 08:33:09;;;;;;;;;;;19.70;46.00;;;11.03;57.81;95940.69;4970903;28;19914;-48
2023/05/17 08:35:35;;;;;;;;;;;19.60;46.10;;;11.21;57.33;95936.75;4966574;28;19988;-49
2023/05/17 08:38:01;;;;;;;;;;;19.60;46.10;;;11.34;58.29;95941.63;4970514;28;19921;-47
2023/05/17 08:40:27;;;;;;;;;;;19.50;46.00;;;10.75;57.00;95951.69;4969002;28;19914;-48
2023/05/17 08:42:53;;;;;;;;;;;19.50;46.00;;;11.26;57.69;95936.78;4970670;28;19921;-48
2023/05/17 08:45:20;;;;;;;;;;;19.40;46.20;;;11.42;58.27;95940.31;4968909;28;20065;-47
2023/05/17 08:47:47;;;;;;;;;;;19.40;46.20;;;11.33;57.30;95940.00;4969735;28;20008;-48
2023/05/17 08:50:14;;;;;;;;;;;19.40;46.00;;;11.41;57.18;95941.41;4970452;28;20009;-47
2023/05/17 08:52:43;;;;;;;;;;;19.50;45.90;;;10.98;57.64;95940.66;4967345;28;19976;-48
2023/05/17 08:55:10;;;;;;;;;;;19.60;45.60;;;10.96;57.83;95940.09;4970162;28;19925;-47
2023/05/17 08:57:38;;;;;;;;;;;19.50;45.30;;;11.08;58.25;95945.22;4970347;28;19925;-49
2023/05/17 09:00:11;;;;;;;;;;;19.40;45.30;;;11.12;57.42;95943.63;4972085;28;20298;-47
2023/05/17 09:02:39;;;;;;;;;;;19.30;45.40;;;11.23;57.04;95937.31;4970161;28;19914;-47
2023/05/17 09:05:06;;;;;;;;;;;19.30;45.40;;;10.85;58.36;95939.25;4969820;28;20365;-48
2023/05/17 09:07:32;;;;;;;;;;;19.30;45.50;;;11.23;57.08;95934.66;4970403;28;19913;-50
2023/05/17 09:09:58;;;;;;;;;;;19.40;45.30;;;11.39;55.80;95935.50;4969818;28;19913;-47
2023/05/17 09:12:24;;;;;;;;;;;19.50;45.30;;;10.94;57.48;95934.22;4969081;28;20456;-48
2023/05/17 09:14:50;;;;;;;;;;;19.40;45.70;;;10.85;56.61;95947.22;4970295;28;20261;-48
2023/05/17 09:17:19;;;;;;;;;;;19.40;44.90;;;10.65;57.33;95952.41;4968957;28;19917;-48
2023/05/17 09:19:47;;;;;;;;;;;19.30;44.90;;;10.74;57.19;95953.53;4969658;28;19918;-47
2023/05/17 09:22:20;;;;;;;;;;;19.10;44.60;;;10.88;57.11;95952.06;4970020;28;19964;-50
2023/05/17 09:24:46;;;;;;;;;;;19.00;44.90;;;10.53;56.88;95949.13;4969325;28;19916;-47
2023/05/17 09:27:17;;;;;;;;;;;19.00;44.80;;;10.86;59.24;95945.38;4972558;28;19914;-51
2023/05/17 09:29:45;;;;;;;;;;;19.00;45.10;;;11.18;57.28;95949.81;4972222;28;20007;-47
2023/05/17 09:32:19;;;;;;;;;;;19.20;45.00;;;11.47;57.33;95948.34;4973741;28;20000;-47
2023/05/17 09:34:47;;;;;;;;;;;19.50;44.90;;;11.91;54.15;95952.50;4972387;28;19951;-47
2023/05/17 09:37:15;;;;;;;;;;;19.80;44.90;;;12.19;53.17;95951.22;4973179;28;20401;-51
2023/05/17 09:39:43;;;;;;;;;;;20.10;44.40;;;12.45;53.08;95954.72;4972730;28;19917;-50
2023/05/17 09:42:10;;;;;;;;;;;20.40;44.30;;;12.46;53.06;95949.09;4970763;28;19940;-48
2023/05/17 09:44:52;;;;;;;;;;;20.80;44.10;;;12.82;52.81;95956.31;4972144;28;19916;-49
2023/05/17 09:47:29;;;;;;;;;;;21.10;43.40;;;13.08;52.80;95960.53;4972035;28;20007;-48
2023/05/17 09:49:57;;;;;;;;;;;21.40;43.20;;;13.17;52.23;95958.13;4971972;28;19960;-49
2023/05/17 09:52:23;;;;;;;;;;;21.80;43.00;;;13.28;53.72;95967.75;4971731;28;19921;-48
2023/05/17 09:54:58;;;;;;;;;;;22.00;42.70;;;13.25;50.34;95965.59;4972689;28;19910;-50
2023/05/17 09:57:27;;;;;;;;;;;22.00;42.90;;;12.67;54.49;95965.94;4972534;28;19932;-48
2023/05/17 09:59:57;;;;;;;;;;;21.70;42.50;;;12.42;53.35;95971.28;4971067;28;20269;-47
2023/05/17 10:02:34;;;;;;;;;;;21.50;42.60;;;12.60;54.32;95973.44;4971641;28;19949;-48
2023/05/17 10:05:07;;;;;;;;;;;21.60;42.30;;;12.27;53.68;95962.19;4971168;28;19910;-48
2023/05/17 10:07:35;;;;;;;;;;;21.50;42.30;;;12.64;55.22;95968.34;4972492;28;19979;-48
2023/05/17 10:10:04;;;;;;;;;;;21.30;42.40;;;12.91;56.23;95984.91;4970667;28;19916;-48
2023/05/17 10:12:33;;;;;;;;;;;21.20;42.70;;;12.45;52.78;95966.22;4970699;28;19960;-48
2023/05/17 10:15:00;;;;;;;;;;;21.50;42.60;;;12.86;51.74;95963.53;4971909;28;20075;-54
2023/05/17 10:17:30;;;;;;;;;;;21.70;42.50;;;12.47;54.14;95957.91;4969830;28;19943;-52
2023/05/17 10:19:57;;;;;;;;;;;21.60;42.20;;;12.65;52.64;95960.06;4972691;28;20277;-58
2023/05/17 10:22:25;;;;;;;;;;;21.50;42.40;;;12.80;54.62;95963.81;4971934;28;19964;-52
2023/05/17 10:24:51;;;;;;;;;;;21.50;42.60;;;13.00;53.39;95974.44;4976717;28;19973;-55
2023/05/17 10:27:17;;;;;;;;;;;21.50;42.60;;;13.10;50.98;95961.09;4972199;28;19920;-55
2023/05/17 10:29:45;;;;;;;;;;;21.40;42.60;;;12.73;50.99;95956.06;4976403;28;19925;-51
2023/05/17 10:32:13;;;;;;;;;;;21.30;42.50;;;12.51;50.58;95951.00;4971397;28;20004;-55
2023/05/17 10:34:39;;;;;;;;;;;21.10;42.30;;;12.73;50.39;95959.53;4971546;28;19921;-54
2023/05/17 10:37:06;;;;;;;;;;;21.30;42.10;;;12.83;51.69;95958.72;4972095;28;20273;-56
2023/05/17 10:39:37;;;;;;;;;;;21.40;41.90;;;12.47;51.83;95955.25;4971912;28;20385;-55
2023/05/17 10:42:07;;;;;;;;;;;21.40;41.80;;;12.86;52.29;95955.50;4970953;28;20281;-53
2023/05/17 10:44:36;;;;;;;;;;;21.30;41.90;;;12.83;51.63;95953.38;4972420;28;19913;-56
2023/05/17 10:47:02;;;;;;;;;;;21.30;41.80;;;13.15;52.07;95965.59;4968400;28;20339;-59
2023/05/17 10:49:32;;;;;;;;;;;21.40;41.70;;;13.33;51.66;95962.38;4970898;28;20362;-59
2023/05/17 10:52:17;;;;;;;;;;;21.60;41.40;;;13.24;50.03;95947.13;4971847;28;19956;-58
2023/05/17 10:54:46;;;;;;;;;;;21.70;41.30;;;13.34;50.53;95955.16;4959583;28;20372;-58
2023/05/17 10:57:35;;;;;;;;;;;21.80;41.20;;;13.57;50.12;95956.41;4971985;28;19928;-57
2023/05/17 11:00:06;;;;;;;;;;;21.80;40.90;;;13.84;50.97;95945.31;4967947;28;19997;-59
2023/05/17 11:02:38;;;;;;;;;;;21.90;40.80;;;14.14;47.89;95938.19;4971922;28;19913;-58
2023/05/17 11:05:05;;;;;;;;;;;22.10;40.90;;;14.11;48.57;95936.84;4972633;28;19914;-59
2023/05/17 11:07:33;;;;;;;;;;;22.50;40.70;;;14.38;45.82;95938.25;4971966;28;19914;-56
2023/05/17 11:10:02;;;;;;;;;;;22.80;40.50;;;14.57;46.96;95925.81;4971456;28;19917;-59
2023/05/17 11:12:52;;;;;;;;;;;23.20;40.10;;;14.98;46.18;95933.50;4970769;28;19914;-58
2023/05/17 11:15:25;;;;;;;;;;;23.50;39.50;;;14.86;46.37;95930.41;4968571;28;19957;-58
2023/05/17 11:17:55;;;;;;;;;;;23.90;38.70;;;15.08;46.89;95927.22;4969595;28;19917;-59
2023/05/17 11:20:24;;;;;;;;;;;24.30;38.10;;;14.90;46.38;95920.69;4971334;28;19979;-59
2023/05/17 11:23:06;;;;;;;;;;;24.30;37.80;;;14.91;44.00;95923.06;4970815;28;19920;-59
2023/05/17 11:25:39;;;;;;;;;;;24.10;37.60;;;14.14;45.07;95930.94;4971257;28;20301;-59